Time;durP1;ratioP1;P1;durP2;ratioP2;P2;SDS_P1;SDS_P2;PMS_P1;PMS_P2;Temp;Humidity;BMP_temperature;BMP_pressure;BME280_temperature;BME280_humidity;BME280_pressure;Samples;Min_cycle;Max_cycle;Signal;HPM_P1;HPM_P2
2023/09/07 00:00:14;;;;;;;6.60;3.97;;;;;;;;;;4978043;28;20455;-80
2023/09/07 00:02:40;;;;;;;6.15;4.40;;;;;;;;;;4978799;28;20027;-80
2023/09/07 00:05:07;;;;;;;7.22;4.75;;;;;;;;;;4977470;28;20481;-79
2023/09/07 00:07:32;;;;;;;7.82;4.80;;;;;;;;;;4976076;28;20569;-80
2023/09/07 00:09:57;;;;;;;4.93;4.40;;;;;;;;;;4977333;28;20050;-80
2023/09/07 00:12:22;;;;;;;6.13;4.40;;;;;;;;;;4976740;28;20265;-80
2023/09/07 00:14:48;;;;;;;7.18;4.38;;;;;;;;;;4960396;28;20027;-80
2023/09/07 00:17:13;;;;;;;8.95;4.18;;;;;;;;;;4977752;28;20031;-80
2023/09/07 00:19:38;;;;;;;6.60;4.43;;;;;;;;;;4977834;28;20033;-82
2023/09/07 00:22:04;;;;;;;7.43;4.65;;;;;;;;;;4977644;28;20260;-80
2023/09/07 00:24:31;;;;;;;7.18;4.68;;;;;;;;;;4977375;28;20026;-80
2023/09/07 00:26:56;;;;;;;7.40;4.68;;;;;;;;;;4960829;28;20066;-81
2023/09/07 00:29:22;;;;;;;7.18;4.38;;;;;;;;;;4961073;28;20023;-81
2023/09/07 00:31:47;;;;;;;6.05;4.45;;;;;;;;;;4975546;28;20030;-79
2023/09/07 00:34:12;;;;;;;6.38;4.45;;;;;;;;;;4958584;28;20094;-79
2023/09/07 00:36:38;;;;;;;6.63;4.50;;;;;;;;;;4959183;28;20018;-80
2023/09/07 00:39:03;;;;;;;7.05;4.70;;;;;;;;;;4976342;28;20257;-80
2023/09/07 00:41:28;;;;;;;6.88;4.45;;;;;;;;;;4958448;28;20545;-80
2023/09/07 00:43:54;;;;;;;8.07;4.35;;;;;;;;;;4976305;28;20031;-80
2023/09/07 00:46:20;;;;;;;7.50;4.30;;;;;;;;;;4978067;28;20039;-80
2023/09/07 00:48:46;;;;;;;6.05;4.32;;;;;;;;;;4978217;28;20023;-79
2023/09/07 00:51:11;;;;;;;7.22;4.55;;;;;;;;;;4977126;28;20103;-80
2023/09/07 00:53:37;;;;;;;8.00;4.47;;;;;;;;;;4960818;28;20129;-81
2023/09/07 00:56:03;;;;;;;6.22;4.40;;;;;;;;;;4978770;28;20022;-80
2023/09/07 00:58:29;;;;;;;7.78;4.70;;;;;;;;;;4961552;28;20068;-81
2023/09/07 01:00:55;;;;;;;5.38;3.95;;;;;;;;;;4977027;28;20030;-81
2023/09/07 01:03:20;;;;;;;8.45;4.93;;;;;;;;;;4978497;28;20023;-80
2023/09/07 01:06:07;;;;;;;7.60;4.38;;;;;;;;;;4961275;28;20026;-80
2023/09/07 01:08:38;;;;;;;9.00;4.65;;;;;;;;;;4960966;28;20037;-81
2023/09/07 01:11:18;;;;;;;8.00;4.80;;;;;;;;;;4961175;28;20022;-79
2023/09/07 01:13:43;;;;;;;7.25;5.07;;;;;;;;;;4978080;28;20026;-80
2023/09/07 01:16:10;;;;;;;7.32;4.50;;;;;;;;;;4978741;28;20026;-81
2023/09/07 01:18:37;;;;;;;6.78;4.28;;;;;;;;;;4978312;28;20499;-81
2023/09/07 01:21:05;;;;;;;5.55;4.40;;;;;;;;;;4978176;28;20469;-80
2023/09/07 01:23:32;;;;;;;8.32;5.00;;;;;;;;;;4978152;28;20430;-81
2023/09/07 01:25:58;;;;;;;7.60;4.50;;;;;;;;;;4978127;28;20069;-81
2023/09/07 01:28:23;;;;;;;5.95;4.55;;;;;;;;;;4976976;28;20033;-80
2023/09/07 01:30:48;;;;;;;5.53;4.35;;;;;;;;;;4978720;28;20452;-80
2023/09/07 01:33:13;;;;;;;5.80;4.10;;;;;;;;;;4979190;28;20130;-80
2023/09/07 01:35:41;;;;;;;6.37;4.53;;;;;;;;;;4979286;28;20292;-81
2023/09/07 01:38:06;;;;;;;7.35;4.47;;;;;;;;;;4978207;28;20257;-80
2023/09/07 01:40:31;;;;;;;6.82;4.32;;;;;;;;;;4978204;28;20030;-81
2023/09/07 01:42:56;;;;;;;7.47;4.53;;;;;;;;;;4978022;28;20531;-80
2023/09/07 01:45:23;;;;;;;5.05;4.22;;;;;;;;;;4977048;28;20062;-81
2023/09/07 01:47:49;;;;;;;6.32;4.65;;;;;;;;;;4976466;28;20081;-80
2023/09/07 01:50:14;;;;;;;5.78;3.92;;;;;;;;;;4977982;28;20027;-79
2023/09/07 01:52:39;;;;;;;7.07;4.70;;;;;;;;;;4996508;28;20035;-80
2023/09/07 01:55:04;;;;;;;6.07;3.90;;;;;;;;;;4996529;28;20034;-80
2023/09/07 01:57:31;;;;;;;7.68;4.47;;;;;;;;;;4996885;28;20260;-81
2023/09/07 01:59:57;;;;;;;5.68;4.10;;;;;;;;;;4997089;28;20535;-80
2023/09/07 02:02:23;;;;;;;7.28;4.32;;;;;;;;;;4996735;28;20480;-80
2023/09/07 02:04:48;;;;;;;12.52;4.38;;;;;;;;;;4996975;28;20029;-81
2023/09/07 02:07:14;;;;;;;7.72;4.22;;;;;;;;;;4979550;28;20069;-81
2023/09/07 02:09:40;;;;;;;5.57;4.40;;;;;;;;;;4978817;28;20050;-80
2023/09/07 02:12:05;;;;;;;5.05;4.30;;;;;;;;;;4996913;28;20101;-80
2023/09/07 02:14:31;;;;;;;6.22;4.32;;;;;;;;;;4997618;28;20505;-80
2023/09/07 02:16:56;;;;;;;13.27;4.60;;;;;;;;;;4979331;28;20382;-81
2023/09/07 02:19:23;;;;;;;10.07;4.40;;;;;;;;;;4997192;28;20026;-80
2023/09/07 02:21:48;;;;;;;8.55;4.32;;;;;;;;;;4997626;28;20027;-81
2023/09/07 02:24:14;;;;;;;6.55;4.68;;;;;;;;;;4980330;28;20034;-80
2023/09/07 02:26:44;;;;;;;6.35;4.60;;;;;;;;;;4980344;28;20034;-81
2023/09/07 02:29:10;;;;;;;6.38;4.28;;;;;;;;;;4996768;28;20057;-80
2023/09/07 02:31:35;;;;;;;5.72;4.40;;;;;;;;;;4995518;28;20022;-81
2023/09/07 02:34:00;;;;;;;10.88;4.75;;;;;;;;;;4995698;28;20563;-80
2023/09/07 02:36:25;;;;;;;6.03;4.60;;;;;;;;;;4978394;28;20024;-79
2023/09/07 02:38:51;;;;;;;5.00;4.22;;;;;;;;;;4996121;28;20395;-80
2023/09/07 02:41:16;;;;;;;6.80;4.68;;;;;;;;;;4978542;28;20022;-79
2023/09/07 02:43:41;;;;;;;8.00;4.90;;;;;;;;;;4995523;28;20022;-79
2023/09/07 02:46:06;;;;;;;8.00;4.72;;;;;;;;;;4995787;28;20256;-81
2023/09/07 02:48:32;;;;;;;6.43;4.40;;;;;;;;;;4995603;28;20050;-80
2023/09/07 02:50:58;;;;;;;6.50;4.63;;;;;;;;;;4978579;28;20030;-81
2023/09/07 02:53:24;;;;;;;6.82;4.32;;;;;;;;;;4979277;28;20034;-81
2023/09/07 02:55:49;;;;;;;7.47;4.63;;;;;;;;;;4979786;28;20029;-82
2023/09/07 02:58:15;;;;;;;6.50;4.68;;;;;;;;;;5000085;28;20038;-80
2023/09/07 03:00:44;;;;;;;9.20;4.93;;;;;;;;;;5000378;28;20026;-81
2023/09/07 03:03:13;;;;;;;6.85;4.72;;;;;;;;;;5000792;28;20026;-82
2023/09/07 03:05:40;;;;;;;14.30;4.85;;;;;;;;;;5000546;28;20038;-80
2023/09/07 03:08:06;;;;;;;7.00;4.53;;;;;;;;;;5000015;28;20109;-82
2023/09/07 03:10:31;;;;;;;5.90;4.80;;;;;;;;;;5001660;28;20077;-82
2023/09/07 03:12:57;;;;;;;8.63;4.70;;;;;;;;;;5001640;28;20034;-82
2023/09/07 03:15:22;;;;;;;6.40;4.87;;;;;;;;;;4999626;28;20030;-81
2023/09/07 03:17:48;;;;;;;7.63;4.35;;;;;;;;;;4999925;28;20287;-82
2023/09/07 03:20:13;;;;;;;7.90;5.00;;;;;;;;;;4982144;28;20058;-82
2023/09/07 03:22:41;;;;;;;6.18;4.15;;;;;;;;;;4999393;28;20256;-81
2023/09/07 03:25:07;;;;;;;9.82;4.50;;;;;;;;;;4981796;28;20029;-80
2023/09/07 03:27:32;;;;;;;8.85;4.78;;;;;;;;;;4999099;28;20023;-80
2023/09/07 03:29:57;;;;;;;8.00;4.60;;;;;;;;;;4981733;28;20347;-81
2023/09/07 03:32:23;;;;;;;6.30;4.30;;;;;;;;;;4982440;28;20269;-81
2023/09/07 03:34:48;;;;;;;8.25;4.43;;;;;;;;;;4981896;28;20252;-81
2023/09/07 03:37:13;;;;;;;6.78;4.68;;;;;;;;;;4982107;28;20125;-81
2023/09/07 03:39:38;;;;;;;11.00;5.00;;;;;;;;;;4999527;28;20087;-83
2023/09/07 03:42:04;;;;;;;7.65;4.88;;;;;;;;;;4999861;28;20252;-81
2023/09/07 03:44:29;;;;;;;8.40;4.82;;;;;;;;;;4982294;28;20072;-80
2023/09/07 03:46:54;;;;;;;5.80;4.40;;;;;;;;;;4999874;28;20531;-82
2023/09/07 03:49:20;;;;;;;6.73;4.70;;;;;;;;;;5000105;28;20572;-81
2023/09/07 03:51:45;;;;;;;6.65;4.88;;;;;;;;;;4999609;28;20286;-82
2023/09/07 03:54:10;;;;;;;6.95;4.63;;;;;;;;;;4982375;28;20404;-81
2023/09/07 03:56:36;;;;;;;10.33;4.70;;;;;;;;;;4999490;28;20073;-81
2023/09/07 03:59:01;;;;;;;6.18;4.40;;;;;;;;;;4999452;28;20306;-82
2023/09/07 04:01:26;;;;;;;8.05;5.05;;;;;;;;;;4998895;28;20022;-80
2023/09/07 04:03:51;;;;;;;6.35;4.78;;;;;;;;;;4998933;28;20134;-81
2023/09/07 04:06:17;;;;;;;9.33;4.77;;;;;;;;;;4999208;28;20389;-82
2023/09/07 04:08:42;;;;;;;9.02;4.95;;;;;;;;;;4998717;28;20310;-82
2023/09/07 04:11:07;;;;;;;6.30;5.10;;;;;;;;;;4998712;28;20033;-81
2023/09/07 04:13:32;;;;;;;7.03;4.38;;;;;;;;;;4982268;28;20498;-82
2023/09/07 04:15:58;;;;;;;9.18;4.65;;;;;;;;;;4982259;28;20030;-83
2023/09/07 04:18:23;;;;;;;5.97;4.57;;;;;;;;;;4999523;28;20081;-82
2023/09/07 04:20:48;;;;;;;6.20;4.88;;;;;;;;;;4999343;28;20671;-82
2023/09/07 04:23:13;;;;;;;6.97;4.80;;;;;;;;;;4999059;28;20066;-82
2023/09/07 04:25:39;;;;;;;7.10;4.70;;;;;;;;;;4981673;28;20260;-82
2023/09/07 04:28:07;;;;;;;8.07;4.47;;;;;;;;;;4981354;28;20068;-81
2023/09/07 04:30:37;;;;;;;8.82;4.60;;;;;;;;;;4999069;28;20323;-81
2023/09/07 04:33:02;;;;;;;8.88;4.53;;;;;;;;;;4981416;28;20031;-81
2023/09/07 04:35:30;;;;;;;5.78;4.47;;;;;;;;;;4998570;28;20027;-83
2023/09/07 04:37:55;;;;;;;8.10;4.70;;;;;;;;;;4998457;28;20034;-81
2023/09/07 04:40:22;;;;;;;8.98;4.60;;;;;;;;;;4980914;28;20034;-82
2023/09/07 04:42:47;;;;;;;8.57;4.90;;;;;;;;;;4980719;28;20029;-82
2023/09/07 04:45:12;;;;;;;8.43;4.70;;;;;;;;;;4980420;28;20022;-82
2023/09/07 04:47:37;;;;;;;9.13;5.03;;;;;;;;;;4997951;28;20343;-82
2023/09/07 04:50:04;;;;;;;6.67;4.70;;;;;;;;;;4998457;28;20322;-81
2023/09/07 04:52:29;;;;;;;8.77;5.20;;;;;;;;;;4981150;28;20264;-82
2023/09/07 04:54:54;;;;;;;10.02;4.95;;;;;;;;;;4980830;28;20038;-80
2023/09/07 04:57:20;;;;;;;9.73;4.80;;;;;;;;;;4998434;28;20492;-81
2023/09/07 04:59:45;;;;;;;5.83;4.63;;;;;;;;;;4998378;28;20631;-81
2023/09/07 05:02:11;;;;;;;8.05;4.78;;;;;;;;;;4997881;28;20318;-79
2023/09/07 05:04:37;;;;;;;6.60;4.85;;;;;;;;;;4998896;28;20037;-80
2023/09/07 05:07:02;;;;;;;8.38;5.05;;;;;;;;;;4999560;28;20073;-81
2023/09/07 05:09:29;;;;;;;10.77;5.05;;;;;;;;;;4998542;28;20098;-78
2023/09/07 05:11:55;;;;;;;9.15;4.60;;;;;;;;;;4981352;28;20014;-80
2023/09/07 05:14:20;;;;;;;7.40;4.57;;;;;;;;;;4998416;28;20089;-79
2023/09/07 05:16:45;;;;;;;5.70;4.63;;;;;;;;;;4998403;28;20076;-79
2023/09/07 05:19:11;;;;;;;6.80;4.75;;;;;;;;;;5001372;28;20026;-80
2023/09/07 05:21:36;;;;;;;7.65;4.32;;;;;;;;;;4998130;28;20026;-80
2023/09/07 05:24:01;;;;;;;9.77;5.13;;;;;;;;;;4981844;28;20026;-79
2023/09/07 05:26:28;;;;;;;6.68;4.75;;;;;;;;;;4997167;28;20097;-79
2023/09/07 05:28:53;;;;;;;9.73;4.68;;;;;;;;;;4997138;28;20026;-80
2023/09/07 05:31:18;;;;;;;5.40;4.15;;;;;;;;;;4980757;28;20045;-80
2023/09/07 05:33:43;;;;;;;7.63;4.60;;;;;;;;;;4997993;28;20026;-80
2023/09/07 05:36:09;;;;;;;7.57;4.73;;;;;;;;;;4998126;28;20026;-80
2023/09/07 05:38:34;;;;;;;4.90;4.22;;;;;;;;;;4998581;28;20264;-80
2023/09/07 05:41:00;;;;;;;8.40;4.85;;;;;;;;;;4999993;28;20022;-79
2023/09/07 05:43:25;;;;;;;12.77;6.35;;;;;;;;;;5001505;28;20056;-79
2023/09/07 05:45:53;;;;;;;11.10;5.35;;;;;;;;;;4982278;28;20045;-81
2023/09/07 05:48:19;;;;;;;7.13;4.40;;;;;;;;;;4997146;28;20392;-79
2023/09/07 05:50:44;;;;;;;7.28;5.00;;;;;;;;;;4997051;28;20022;-81
2023/09/07 05:53:10;;;;;;;9.90;5.25;;;;;;;;;;4998289;28;20458;-78
2023/09/07 05:55:35;;;;;;;6.80;4.40;;;;;;;;;;4997260;28;20412;-80
2023/09/07 05:58:05;;;;;;;6.05;4.47;;;;;;;;;;4997183;28;20061;-79
2023/09/07 06:00:30;;;;;;;9.60;4.68;;;;;;;;;;4979662;28;20022;-80
2023/09/07 06:02:55;;;;;;;15.18;5.03;;;;;;;;;;4996859;28;20037;-78
2023/09/07 06:05:21;;;;;;;12.05;5.43;;;;;;;;;;4980282;28;20026;-79
2023/09/07 06:07:46;;;;;;;7.63;4.35;;;;;;;;;;4996952;28;20030;-81
2023/09/07 06:10:12;;;;;;;8.48;5.13;;;;;;;;;;4997274;28;20029;-80
2023/09/07 06:12:37;;;;;;;11.00;4.68;;;;;;;;;;4996945;28;20370;-80
2023/09/07 06:15:03;;;;;;;7.25;4.20;;;;;;;;;;4979622;28;20045;-80
2023/09/07 06:17:28;;;;;;;9.50;4.45;;;;;;;;;;4997289;28;20022;-79
2023/09/07 06:19:54;;;;;;;7.78;4.55;;;;;;;;;;4979434;28;20042;-80
2023/09/07 06:22:19;;;;;;;8.98;4.82;;;;;;;;;;4978719;28;20026;-80
2023/09/07 06:24:44;;;;;;;8.75;4.72;;;;;;;;;;4995692;28;20465;-79
2023/09/07 06:27:10;;;;;;;6.60;4.47;;;;;;;;;;4996206;28;20073;-80
2023/09/07 06:29:35;;;;;;;6.82;4.68;;;;;;;;;;4978851;28;20041;-80
2023/09/07 06:32:00;;;;;;;7.00;4.50;;;;;;;;;;4979822;28;20158;-79
2023/09/07 06:34:26;;;;;;;8.55;4.60;;;;;;;;;;5000410;28;20275;-79
2023/09/07 06:36:51;;;;;;;7.03;4.47;;;;;;;;;;4982765;28;20422;-80
2023/09/07 06:39:16;;;;;;;7.83;4.57;;;;;;;;;;5000340;28;20076;-78
2023/09/07 06:41:41;;;;;;;7.90;4.35;;;;;;;;;;5000544;28;20731;-79
2023/09/07 06:44:07;;;;;;;7.15;4.00;;;;;;;;;;5000110;28;20029;-79
2023/09/07 06:46:32;;;;;;;8.73;4.57;;;;;;;;;;5001245;28;20030;-78
2023/09/07 06:48:57;;;;;;;7.93;4.23;;;;;;;;;;5001318;28;20057;-78
2023/09/07 06:51:23;;;;;;;7.43;4.20;;;;;;;;;;5000427;28;20275;-80
2023/09/07 06:53:50;;;;;;;8.03;4.37;;;;;;;;;;4999720;28;20362;-79
2023/09/07 06:56:15;;;;;;;8.07;3.83;;;;;;;;;;4982436;28;20770;-78
2023/09/07 06:58:40;;;;;;;6.78;4.22;;;;;;;;;;4999439;28;20030;-80
2023/09/07 07:01:06;;;;;;;8.33;4.13;;;;;;;;;;4981999;28;20019;-79
2023/09/07 07:03:31;;;;;;;7.35;3.95;;;;;;;;;;4999091;28;20361;-79
2023/09/07 07:05:57;;;;;;;6.47;3.95;;;;;;;;;;4999342;28;20073;-79
2023/09/07 07:08:22;;;;;;;6.15;4.05;;;;;;;;;;4999588;28;20030;-80
2023/09/07 07:10:48;;;;;;;7.28;4.40;;;;;;;;;;4999140;28;20374;-78
2023/09/07 07:13:13;;;;;;;5.82;3.70;;;;;;;;;;4999091;28;20543;-79
2023/09/07 07:15:38;;;;;;;6.05;4.03;;;;;;;;;;4999185;28;20060;-78
2023/09/07 07:18:08;;;;;;;6.60;3.88;;;;;;;;;;4981485;28;20393;-79
2023/09/07 07:20:38;;;;;;;6.25;3.80;;;;;;;;;;4998979;28;20122;-80
2023/09/07 07:23:03;;;;;;;5.57;3.80;;;;;;;;;;4982029;28;20026;-79
2023/09/07 07:25:31;;;;;;;10.23;3.60;;;;;;;;;;4998802;28;20030;-80
2023/09/07 07:27:56;;;;;;;5.57;3.92;;;;;;;;;;4999296;28;20069;-80
2023/09/07 07:30:21;;;;;;;6.00;4.35;;;;;;;;;;4999249;28;20019;-79
2023/09/07 07:32:47;;;;;;;7.80;3.83;;;;;;;;;;4999765;28;20045;-78
2023/09/07 07:35:13;;;;;;;6.07;3.72;;;;;;;;;;4999347;28;20260;-79
2023/09/07 07:37:38;;;;;;;7.35;3.40;;;;;;;;;;4999377;28;20023;-80
2023/09/07 07:40:04;;;;;;;6.78;3.60;;;;;;;;;;4999601;28;20022;-78
2023/09/07 07:42:30;;;;;;;16.75;4.15;;;;;;;;;;4999711;28;20051;-79
2023/09/07 07:44:55;;;;;;;7.60;3.90;;;;;;;;;;4981404;28;20030;-78
2023/09/07 07:47:21;;;;;;;6.32;3.60;;;;;;;;;;4981994;28;20280;-78
2023/09/07 07:49:46;;;;;;;5.60;3.65;;;;;;;;;;4981889;28;20029;-78
2023/09/07 07:52:11;;;;;;;5.10;3.53;;;;;;;;;;4998401;28;20389;-79
2023/09/07 07:54:36;;;;;;;4.43;3.43;;;;;;;;;;4981438;28;20046;-78
2023/09/07 07:57:02;;;;;;;6.40;3.60;;;;;;;;;;4999618;28;20331;-78
2023/09/07 07:59:27;;;;;;;5.13;3.85;;;;;;;;;;4999188;28;20029;-78
2023/09/07 08:01:53;;;;;;;7.60;3.53;;;;;;;;;;4998951;28;20151;-79
2023/09/07 08:04:18;;;;;;;7.90;3.53;;;;;;;;;;4981335;28;20089;-79
2023/09/07 08:06:43;;;;;;;5.00;3.43;;;;;;;;;;4999098;28;20026;-79
2023/09/07 08:09:08;;;;;;;7.80;3.37;;;;;;;;;;4998982;28;20350;-79
2023/09/07 08:11:34;;;;;;;6.78;3.35;;;;;;;;;;4999000;28;20670;-79
2023/09/07 08:13:59;;;;;;;4.65;3.45;;;;;;;;;;5006057;28;20026;-78
2023/09/07 08:16:24;;;;;;;5.28;3.40;;;;;;;;;;5004266;28;20137;-77
2023/09/07 08:18:50;;;;;;;5.07;3.30;;;;;;;;;;4999796;28;20044;-78
2023/09/07 08:21:15;;;;;;;5.40;3.25;;;;;;;;;;4990378;28;20036;-77
2023/09/07 08:23:41;;;;;;;6.13;3.13;;;;;;;;;;4999776;28;20034;-78
2023/09/07 08:26:06;;;;;;;7.22;3.53;;;;;;;;;;4992633;28;20032;-79
2023/09/07 08:28:32;;;;;;;5.55;3.10;;;;;;;;;;4998933;28;20030;-78
2023/09/07 08:30:59;;;;;;;6.18;3.60;;;;;;;;;;4999203;28;20029;-79
2023/09/07 08:33:28;;;;;;;4.15;3.30;;;;;;;;;;4979335;28;20018;-80
2023/09/07 08:35:55;;;;;;;7.32;3.55;;;;;;;;;;4997410;28;20074;-78
2023/09/07 08:38:24;;;;;;;6.22;3.50;;;;;;;;;;4997302;28;20030;-80
2023/09/07 08:40:51;;;;;;;7.40;3.40;;;;;;;;;;4997791;28;20104;-80
2023/09/07 08:43:18;;;;;;;8.80;3.45;;;;;;;;;;4979970;28;20408;-79
2023/09/07 08:45:50;;;;;;;6.18;3.25;;;;;;;;;;4979493;28;20114;-79
2023/09/07 08:48:17;;;;;;;5.75;3.38;;;;;;;;;;4996260;28;20649;-80
2023/09/07 08:50:49;;;;;;;4.18;3.05;;;;;;;;;;4996862;28;20030;-79
2023/09/07 08:53:14;;;;;;;6.25;3.42;;;;;;;;;;4998120;28;20034;-80
2023/09/07 08:55:40;;;;;;;6.03;3.72;;;;;;;;;;4996725;28;20042;-79
2023/09/07 08:58:05;;;;;;;4.93;3.50;;;;;;;;;;4996683;28;20085;-79
2023/09/07 09:00:31;;;;;;;6.15;3.72;;;;;;;;;;4978453;28;20018;-80
2023/09/07 09:02:56;;;;;;;6.07;3.53;;;;;;;;;;4997669;28;20023;-79
2023/09/07 09:05:23;;;;;;;6.35;3.85;;;;;;;;;;4980053;28;20029;-79
2023/09/07 09:07:48;;;;;;;8.52;3.63;;;;;;;;;;4996235;28;20034;-79
2023/09/07 09:10:13;;;;;;;4.82;3.28;;;;;;;;;;4996473;28;20028;-80
2023/09/07 09:12:46;;;;;;;8.70;3.67;;;;;;;;;;4979837;28;20022;-78
2023/09/07 09:15:12;;;;;;;12.05;3.50;;;;;;;;;;4997504;28;20459;-80
2023/09/07 09:17:37;;;;;;;22.48;6.30;;;;;;;;;;4996892;28;20061;-79
2023/09/07 09:20:05;;;;;;;5.43;3.63;;;;;;;;;;4997390;28;20033;-80
2023/09/07 09:22:31;;;;;;;5.28;3.10;;;;;;;;;;4979590;28;20260;-80
2023/09/07 09:24:56;;;;;;;10.15;3.00;;;;;;;;;;4997249;28;20032;-79
2023/09/07 09:27:21;;;;;;;15.37;5.63;;;;;;;;;;4997233;28;20022;-80
2023/09/07 09:29:46;;;;;;;5.87;3.60;;;;;;;;;;4997064;28;20287;-79
2023/09/07 09:32:14;;;;;;;8.18;3.97;;;;;;;;;;4996627;28;20284;-79
2023/09/07 09:34:39;;;;;;;9.38;3.88;;;;;;;;;;4979772;28;20033;-80
2023/09/07 09:37:12;;;;;;;7.88;3.30;;;;;;;;;;4997159;28;20026;-80
2023/09/07 09:39:38;;;;;;;6.22;3.28;;;;;;;;;;4979941;28;20049;-79
2023/09/07 09:42:03;;;;;;;10.13;4.38;;;;;;;;;;4996939;28;20101;-78
2023/09/07 09:44:29;;;;;;;4.95;3.40;;;;;;;;;;4979307;28;20066;-78
2023/09/07 09:46:55;;;;;;;8.98;4.13;;;;;;;;;;4979509;28;20045;-80
2023/09/07 09:49:22;;;;;;;5.40;3.28;;;;;;;;;;4996885;28;20025;-79
2023/09/07 09:51:49;;;;;;;4.93;3.65;;;;;;;;;;4978844;28;20045;-77
2023/09/07 09:54:16;;;;;;;5.38;3.33;;;;;;;;;;4995263;28;20129;-78
2023/09/07 09:56:42;;;;;;;5.68;3.20;;;;;;;;;;4995688;28;20037;-77
2023/09/07 09:59:07;;;;;;;5.63;3.75;;;;;;;;;;4978030;28;20022;-76
2023/09/07 10:01:46;;;;;;;4.67;3.43;;;;;;;;;;4994443;28;20022;-77
2023/09/07 10:04:14;;;;;;;6.15;3.88;;;;;;;;;;4978055;28;20271;-78
2023/09/07 10:06:50;;;;;;;6.05;3.40;;;;;;;;;;4977318;28;20045;-79
2023/09/07 10:09:18;;;;;;;5.90;3.08;;;;;;;;;;4995779;28;20030;-77
2023/09/07 10:11:43;;;;;;;5.57;3.22;;;;;;;;;;4978114;28;20085;-78
2023/09/07 10:14:08;;;;;;;6.28;3.40;;;;;;;;;;4977888;28;20026;-78
2023/09/07 10:16:44;;;;;;;8.13;3.60;;;;;;;;;;4978114;28;20019;-78
2023/09/07 10:19:17;;;;;;;6.35;3.30;;;;;;;;;;4996923;28;20084;-78
2023/09/07 10:21:42;;;;;;;7.18;3.42;;;;;;;;;;4996072;28;20381;-77
2023/09/07 10:24:07;;;;;;;5.05;3.53;;;;;;;;;;4995285;28;20057;-78
2023/09/07 10:26:33;;;;;;;5.88;3.55;;;;;;;;;;4995343;28;20045;-78
2023/09/07 10:29:00;;;;;;;7.60;3.07;;;;;;;;;;4978172;28;20461;-79
2023/09/07 10:31:26;;;;;;;7.50;3.40;;;;;;;;;;4995317;28;20280;-77
2023/09/07 10:33:51;;;;;;;3.83;3.10;;;;;;;;;;4978199;28;20026;-78
2023/09/07 10:36:22;;;;;;;5.05;2.90;;;;;;;;;;4995409;28;20019;-78
2023/09/07 10:38:47;;;;;;;5.60;3.00;;;;;;;;;;4978088;28;20027;-78
2023/09/07 10:41:13;;;;;;;4.53;3.00;;;;;;;;;;4995754;28;20025;-76
2023/09/07 10:43:47;;;;;;;6.38;3.25;;;;;;;;;;4995959;28;20030;-78
2023/09/07 10:46:13;;;;;;;10.35;3.35;;;;;;;;;;4978499;28;20025;-78
2023/09/07 10:48:38;;;;;;;6.60;3.60;;;;;;;;;;4995130;28;20034;-78
2023/09/07 10:51:03;;;;;;;5.13;2.92;;;;;;;;;;4994910;28;20037;-77
2023/09/07 10:53:31;;;;;;;4.38;3.38;;;;;;;;;;4995484;28;20053;-79
2023/09/07 10:55:58;;;;;;;4.85;3.05;;;;;;;;;;4995370;28;20393;-79
2023/09/07 10:58:30;;;;;;;4.97;3.20;;;;;;;;;;4994158;28;20029;-77
2023/09/07 11:00:59;;;;;;;6.95;3.10;;;;;;;;;;4975612;28;20026;-79
2023/09/07 11:03:26;;;;;;;5.45;3.13;;;;;;;;;;4974414;28;20072;-78
2023/09/07 11:05:55;;;;;;;4.47;3.15;;;;;;;;;;4976078;28;20496;-77
2023/09/07 11:08:21;;;;;;;3.50;2.70;;;;;;;;;;4993660;28;20077;-78
2023/09/07 11:10:46;;;;;;;4.57;3.00;;;;;;;;;;4992875;28;20330;-78
2023/09/07 11:13:12;;;;;;;4.25;3.00;;;;;;;;;;4994489;28;20057;-78
2023/09/07 11:15:39;;;;;;;4.32;2.83;;;;;;;;;;4995711;28;20041;-77
2023/09/07 11:18:06;;;;;;;7.63;3.20;;;;;;;;;;4995839;28;20029;-76
2023/09/07 11:20:32;;;;;;;8.93;3.28;;;;;;;;;;4963353;28;20018;-76
2023/09/07 11:22:58;;;;;;;4.30;3.13;;;;;;;;;;4995949;28;20022;-78
2023/09/07 11:25:23;;;;;;;5.97;3.10;;;;;;;;;;4996444;28;20458;-78
2023/09/07 11:27:54;;;;;;;5.33;3.47;;;;;;;;;;4999770;28;20029;-76
2023/09/07 11:30:20;;;;;;;4.70;3.20;;;;;;;;;;4980874;28;20375;-79
2023/09/07 11:32:46;;;;;;;9.02;3.22;;;;;;;;;;4982260;28;20079;-76
2023/09/07 11:35:11;;;;;;;4.25;3.00;;;;;;;;;;4980058;28;20026;-76
2023/09/07 11:37:37;;;;;;;4.82;3.38;;;;;;;;;;4996705;28;20102;-76
2023/09/07 11:40:10;;;;;;;5.22;3.33;;;;;;;;;;4996424;28;20052;-76
2023/09/07 11:42:36;;;;;;;5.90;3.60;;;;;;;;;;4979619;28;20022;-79
2023/09/07 11:45:01;;;;;;;6.47;3.10;;;;;;;;;;4996288;28;20522;-77
2023/09/07 11:47:26;;;;;;;4.18;3.10;;;;;;;;;;4977689;28;20062;-77
2023/09/07 11:49:52;;;;;;;6.30;3.47;;;;;;;;;;4997366;28;20520;-77
2023/09/07 11:52:18;;;;;;;8.00;3.47;;;;;;;;;;4996272;28;20280;-77
2023/09/07 11:54:43;;;;;;;7.18;3.65;;;;;;;;;;4980597;28;20038;-78
2023/09/07 11:57:09;;;;;;;5.83;3.10;;;;;;;;;;4997125;28;20026;-77
2023/09/07 11:59:34;;;;;;;8.52;3.22;;;;;;;;;;4980412;28;20264;-77
2023/09/07 12:02:00;;;;;;;5.13;3.57;;;;;;;;;;4999111;28;20049;-78
2023/09/07 12:04:25;;;;;;;6.97;3.42;;;;;;;;;;4996898;28;20260;-75
2023/09/07 12:06:51;;;;;;;6.72;3.38;;;;;;;;;;4996432;28;20034;-78
2023/09/07 12:09:17;;;;;;;8.60;3.63;;;;;;;;;;4996183;28;20105;-78
2023/09/07 12:11:43;;;;;;;5.97;3.40;;;;;;;;;;4997642;28;20022;-77
2023/09/07 12:14:08;;;;;;;8.88;3.30;;;;;;;;;;4997809;28;20026;-78
2023/09/07 12:16:34;;;;;;;4.65;3.40;;;;;;;;;;4997476;28;20440;-78
2023/09/07 12:18:59;;;;;;;5.43;3.30;;;;;;;;;;4980640;28;20030;-79
2023/09/07 12:21:24;;;;;;;7.00;3.63;;;;;;;;;;4998146;28;20278;-80
2023/09/07 12:23:50;;;;;;;7.43;3.05;;;;;;;;;;4995803;28;20027;-77
2023/09/07 12:26:16;;;;;;;3.73;3.10;;;;;;;;;;4997313;28;20114;-78
2023/09/07 12:28:42;;;;;;;6.28;2.95;;;;;;;;;;4997639;28;20259;-78
2023/09/07 12:31:07;;;;;;;6.55;3.30;;;;;;;;;;4979638;28;20401;-78
2023/09/07 12:33:32;;;;;;;6.07;3.22;;;;;;;;;;4979503;28;20034;-80
2023/09/07 12:35:58;;;;;;;6.55;3.42;;;;;;;;;;4979939;28;20433;-78
2023/09/07 12:38:28;;;;;;;5.80;3.50;;;;;;;;;;4979318;28;20033;-78
2023/09/07 12:40:55;;;;;;;5.10;3.30;;;;;;;;;;4997134;28;20434;-77
2023/09/07 12:43:21;;;;;;;5.85;3.00;;;;;;;;;;4979616;28;20026;-77
2023/09/07 12:45:46;;;;;;;5.28;2.95;;;;;;;;;;4997537;28;20022;-78
2023/09/07 12:48:12;;;;;;;5.55;3.30;;;;;;;;;;4978613;28;20033;-78
2023/09/07 12:50:37;;;;;;;5.55;3.35;;;;;;;;;;4997356;28;20030;-78
2023/09/07 12:53:02;;;;;;;4.90;2.90;;;;;;;;;;4997040;28;20041;-77
2023/09/07 12:55:29;;;;;;;4.60;2.97;;;;;;;;;;4997292;28;20179;-78
2023/09/07 12:57:55;;;;;;;7.60;3.10;;;;;;;;;;4996924;28;20095;-79
2023/09/07 13:00:20;;;;;;;4.72;2.95;;;;;;;;;;4996807;28;20109;-78
2023/09/07 13:02:45;;;;;;;5.15;3.30;;;;;;;;;;4980065;28;20117;-79
2023/09/07 13:05:10;;;;;;;6.47;3.20;;;;;;;;;;4979151;28;20022;-78
2023/09/07 13:07:36;;;;;;;4.63;2.88;;;;;;;;;;4997440;28;20659;-79
2023/09/07 13:10:03;;;;;;;5.60;3.13;;;;;;;;;;4979437;28;20030;-77
2023/09/07 13:12:29;;;;;;;3.78;2.60;;;;;;;;;;4996690;28;20393;-78
2023/09/07 13:14:55;;;;;;;3.92;2.70;;;;;;;;;;4997479;28;20034;-79
2023/09/07 13:17:20;;;;;;;4.72;2.97;;;;;;;;;;4997266;28;20040;-78
2023/09/07 13:19:48;;;;;;;6.63;2.90;;;;;;;;;;4996719;28;20393;-79
2023/09/07 13:22:13;;;;;;;6.63;2.65;;;;;;;;;;4979203;28;20679;-79
2023/09/07 13:24:38;;;;;;;4.65;2.78;;;;;;;;;;4979418;28;20053;-79
2023/09/07 13:27:04;;;;;;;4.33;2.90;;;;;;;;;;4996990;28;20127;-79
2023/09/07 13:29:31;;;;;;;5.03;2.90;;;;;;;;;;4996869;28;20765;-80
2023/09/07 13:31:58;;;;;;;4.95;3.13;;;;;;;;;;4995650;28;20026;-77
2023/09/07 13:34:23;;;;;;;3.55;2.85;;;;;;;;;;4979309;28;20023;-80
2023/09/07 13:36:49;;;;;;;4.47;2.80;;;;;;;;;;4996978;28;20034;-80
2023/09/07 13:39:14;;;;;;;7.57;2.90;;;;;;;;;;4996947;28;20474;-78
2023/09/07 13:41:39;;;;;;;4.83;3.00;;;;;;;;;;4996415;28;20263;-78
2023/09/07 13:44:04;;;;;;;7.90;3.40;;;;;;;;;;4995861;28;20255;-78
2023/09/07 13:46:30;;;;;;;6.78;2.60;;;;;;;;;;4997481;28;20034;-77
2023/09/07 13:48:55;;;;;;;8.70;3.22;;;;;;;;;;4996129;28;20408;-78
2023/09/07 13:51:20;;;;;;;4.30;2.60;;;;;;;;;;4995144;28;20022;-77
2023/09/07 13:53:45;;;;;;;4.57;2.90;;;;;;;;;;4977494;28;20264;-77
2023/09/07 13:56:11;;;;;;;4.22;2.63;;;;;;;;;;4977886;28;20133;-77
2023/09/07 13:58:36;;;;;;;2.70;2.47;;;;;;;;;;4994954;28;20508;-76
2023/09/07 14:01:01;;;;;;;4.93;2.80;;;;;;;;;;4994392;28;20018;-78
2023/09/07 14:03:26;;;;;;;6.97;3.20;;;;;;;;;;4977740;28;20350;-77
2023/09/07 14:05:52;;;;;;;5.17;2.60;;;;;;;;;;4994934;28;20688;-77
2023/09/07 14:08:23;;;;;;;5.53;2.53;;;;;;;;;;4994721;28;20256;-77
2023/09/07 14:10:48;;;;;;;7.70;2.80;;;;;;;;;;4995904;28;20392;-80
2023/09/07 14:13:13;;;;;;;7.80;2.83;;;;;;;;;;4980156;28;20030;-79
2023/09/07 14:15:38;;;;;;;5.43;2.30;;;;;;;;;;4977481;28;20077;-79
2023/09/07 14:18:04;;;;;;;6.33;2.30;;;;;;;;;;4996478;28;20290;-80
2023/09/07 14:20:29;;;;;;;7.32;2.78;;;;;;;;;;4978571;28;20747;-77
2023/09/07 14:22:57;;;;;;;4.43;2.87;;;;;;;;;;4994750;28;20088;-77
2023/09/07 14:25:22;;;;;;;4.00;2.80;;;;;;;;;;4998071;28;20338;-78
2023/09/07 14:27:47;;;;;;;7.78;2.70;;;;;;;;;;5001417;28;20093;-78
2023/09/07 14:30:13;;;;;;;3.58;2.55;;;;;;;;;;4988316;28;20026;-79
2023/09/07 14:32:38;;;;;;;3.50;2.22;;;;;;;;;;5003066;28;20023;-79
2023/09/07 14:35:04;;;;;;;3.05;2.50;;;;;;;;;;4998913;28;20030;-79